sensor_id;sensor_type;location;lat;lon;timestamp;temperature;humidity
8633;DHT22;4354;49.832;10.746;2023-07-13T00:00:27;20.00;91.30
8633;DHT22;4354;49.832;10.746;2023-07-13T00:02:54;19.90;95.10
8633;DHT22;4354;49.832;10.746;2023-07-13T00:05:22;19.90;99.90
8633;DHT22;4354;49.832;10.746;2023-07-13T00:07:51;19.80;99.90
8633;DHT22;4354;49.832;10.746;2023-07-13T00:10:18;19.70;99.90
8633;DHT22;4354;49.832;10.746;2023-07-13T00:12:45;19.60;99.90
8633;DHT22;4354;49.832;10.746;2023-07-13T00:15:15;19.50;99.90
8633;DHT22;4354;49.832;10.746;2023-07-13T00:17:53;19.40;99.90
8633;DHT22;4354;49.832;10.746;2023-07-13T00:20:22;19.30;99.90
8633;DHT22;4354;49.832;10.746;2023-07-13T00:22:52;19.30;99.90
8633;DHT22;4354;49.832;10.746;2023-07-13T00:25:21;19.20;99.90
8633;DHT22;4354;49.832;10.746;2023-07-13T00:27:50;19.10;99.90
8633;DHT22;4354;49.832;10.746;2023-07-13T00:30:17;19.00;99.90
8633;DHT22;4354;49.832;10.746;2023-07-13T00:32:44;18.90;1.00
8633;DHT22;4354;49.832;10.746;2023-07-13T00:35:14;18.90;99.90
8633;DHT22;4354;49.832;10.746;2023-07-13T00:37:41;18.90;99.90
8633;DHT22;4354;49.832;10.746;2023-07-13T00:40:10;19.00;99.90
8633;DHT22;4354;49.832;10.746;2023-07-13T00:42:38;19.00;99.90
8633;DHT22;4354;49.832;10.746;2023-07-13T00:47:38;18.80;1.00
8633;DHT22;4354;49.832;10.746;2023-07-13T00:50:09;18.60;1.00
8633;DHT22;4354;49.832;10.746;2023-07-13T00:52:40;18.50;1.00
8633;DHT22;4354;49.832;10.746;2023-07-13T00:55:08;18.50;1.00
8633;DHT22;4354;49.832;10.746;2023-07-13T00:57:37;18.50;1.00
8633;DHT22;4354;49.832;10.746;2023-07-13T01:00:05;18.40;1.00
8633;DHT22;4354;49.832;10.746;2023-07-13T01:02:38;18.30;1.00
8633;DHT22;4354;49.832;10.746;2023-07-13T01:05:13;18.20;1.00
8633;DHT22;4354;49.832;10.746;2023-07-13T01:07:42;18.10;1.00
8633;DHT22;4354;49.832;10.746;2023-07-13T01:10:12;18.00;1.00
8633;DHT22;4354;49.832;10.746;2023-07-13T01:12:39;18.00;1.00
8633;DHT22;4354;49.832;10.746;2023-07-13T01:15:32;18.00;1.00
8633;DHT22;4354;49.832;10.746;2023-07-13T01:17:53;17.90;16.60
8633;DHT22;4354;49.832;10.746;2023-07-13T01:20:21;17.90;47.90
8633;DHT22;4354;49.832;10.746;2023-07-13T01:22:48;17.90;1.00
8633;DHT22;4354;49.832;10.746;2023-07-13T01:25:15;17.90;1.00
8633;DHT22;4354;49.832;10.746;2023-07-13T01:27:42;17.90;1.00
8633;DHT22;4354;49.832;10.746;2023-07-13T01:30:09;17.90;1.00
8633;DHT22;4354;49.832;10.746;2023-07-13T01:32:36;17.90;1.00
8633;DHT22;4354;49.832;10.746;2023-07-13T01:35:04;17.90;1.00
8633;DHT22;4354;49.832;10.746;2023-07-13T01:37:30;17.90;1.00
8633;DHT22;4354;49.832;10.746;2023-07-13T01:39:59;17.70;99.90
8633;DHT22;4354;49.832;10.746;2023-07-13T01:42:28;17.70;99.90
8633;DHT22;4354;49.832;10.746;2023-07-13T01:44:54;17.60;99.90
8633;DHT22;4354;49.832;10.746;2023-07-13T01:47:22;17.60;99.90
8633;DHT22;4354;49.832;10.746;2023-07-13T01:49:50;17.50;99.90
8633;DHT22;4354;49.832;10.746;2023-07-13T01:52:18;17.60;99.90
8633;DHT22;4354;49.832;10.746;2023-07-13T01:54:45;17.40;1.00
8633;DHT22;4354;49.832;10.746;2023-07-13T01:57:12;17.20;1.00
8633;DHT22;4354;49.832;10.746;2023-07-13T01:59:38;17.20;1.00
8633;DHT22;4354;49.832;10.746;2023-07-13T02:02:06;17.10;1.00
8633;DHT22;4354;49.832;10.746;2023-07-13T02:04:34;17.10;99.90
8633;DHT22;4354;49.832;10.746;2023-07-13T02:07:01;17.00;1.00
8633;DHT22;4354;49.832;10.746;2023-07-13T02:09:27;16.80;99.90
8633;DHT22;4354;49.832;10.746;2023-07-13T02:11:54;16.80;99.90
8633;DHT22;4354;49.832;10.746;2023-07-13T02:14:21;16.70;99.90
8633;DHT22;4354;49.832;10.746;2023-07-13T02:16:48;16.70;99.90
8633;DHT22;4354;49.832;10.746;2023-07-13T02:19:15;16.80;99.90
8633;DHT22;4354;49.832;10.746;2023-07-13T02:21:42;16.80;99.90
8633;DHT22;4354;49.832;10.746;2023-07-13T02:24:09;16.60;1.00
8633;DHT22;4354;49.832;10.746;2023-07-13T02:26:36;16.50;1.00
8633;DHT22;4354;49.832;10.746;2023-07-13T02:29:03;16.40;1.00
8633;DHT22;4354;49.832;10.746;2023-07-13T02:31:29;16.40;99.90
8633;DHT22;4354;49.832;10.746;2023-07-13T02:33:57;16.40;76.90
8633;DHT22;4354;49.832;10.746;2023-07-13T02:36:23;16.40;1.00
8633;DHT22;4354;49.832;10.746;2023-07-13T02:38:50;16.50;1.00
8633;DHT22;4354;49.832;10.746;2023-07-13T02:41:17;16.40;99.90
8633;DHT22;4354;49.832;10.746;2023-07-13T02:43:44;16.30;99.90
8633;DHT22;4354;49.832;10.746;2023-07-13T02:46:11;16.20;1.00
8633;DHT22;4354;49.832;10.746;2023-07-13T02:48:39;16.00;99.90
8633;DHT22;4354;49.832;10.746;2023-07-13T02:51:07;15.90;1.00
8633;DHT22;4354;49.832;10.746;2023-07-13T02:53:34;16.00;99.90
8633;DHT22;4354;49.832;10.746;2023-07-13T02:56:03;16.00;1.00
8633;DHT22;4354;49.832;10.746;2023-07-13T02:58:31;16.10;99.90
8633;DHT22;4354;49.832;10.746;2023-07-13T03:00:57;16.10;99.90
8633;DHT22;4354;49.832;10.746;2023-07-13T03:03:24;16.00;99.90
8633;DHT22;4354;49.832;10.746;2023-07-13T03:06:02;16.00;99.90
8633;DHT22;4354;49.832;10.746;2023-07-13T03:08:29;15.90;1.00
8633;DHT22;4354;49.832;10.746;2023-07-13T03:11:04;15.80;1.00
8633;DHT22;4354;49.832;10.746;2023-07-13T03:13:31;15.70;1.00
8633;DHT22;4354;49.832;10.746;2023-07-13T03:15:58;15.60;1.00
8633;DHT22;4354;49.832;10.746;2023-07-13T03:18:27;15.50;99.90
8633;DHT22;4354;49.832;10.746;2023-07-13T03:20:54;15.50;1.00
8633;DHT22;4354;49.832;10.746;2023-07-13T03:23:21;15.50;1.00
8633;DHT22;4354;49.832;10.746;2023-07-13T03:25:49;15.60;1.00
8633;DHT22;4354;49.832;10.746;2023-07-13T03:28:16;15.50;1.00
8633;DHT22;4354;49.832;10.746;2023-07-13T03:30:43;15.60;49.30
8633;DHT22;4354;49.832;10.746;2023-07-13T03:33:11;15.60;1.00
8633;DHT22;4354;49.832;10.746;2023-07-13T03:35:40;15.60;99.90
8633;DHT22;4354;49.832;10.746;2023-07-13T03:38:07;15.80;1.00
8633;DHT22;4354;49.832;10.746;2023-07-13T03:40:34;15.80;1.00
8633;DHT22;4354;49.832;10.746;2023-07-13T03:43:01;15.90;99.90
8633;DHT22;4354;49.832;10.746;2023-07-13T03:45:29;15.90;99.90
8633;DHT22;4354;49.832;10.746;2023-07-13T03:47:55;15.80;1.00
8633;DHT22;4354;49.832;10.746;2023-07-13T03:50:22;15.80;1.00
8633;DHT22;4354;49.832;10.746;2023-07-13T03:52:49;15.70;23.40
8633;DHT22;4354;49.832;10.746;2023-07-13T03:55:16;15.70;1.00
8633;DHT22;4354;49.832;10.746;2023-07-13T03:57:43;15.70;93.40
8633;DHT22;4354;49.832;10.746;2023-07-13T04:00:11;15.70;1.00
8633;DHT22;4354;49.832;10.746;2023-07-13T04:02:41;15.50;99.90
8633;DHT22;4354;49.832;10.746;2023-07-13T04:05:08;15.70;99.90
8633;DHT22;4354;49.832;10.746;2023-07-13T04:07:34;15.80;99.90
8633;DHT22;4354;49.832;10.746;2023-07-13T04:10:01;15.90;1.00
8633;DHT22;4354;49.832;10.746;2023-07-13T04:12:28;16.00;99.90
8633;DHT22;4354;49.832;10.746;2023-07-13T04:14:56;16.10;1.00
8633;DHT22;4354;49.832;10.746;2023-07-13T04:17:23;16.20;1.00
8633;DHT22;4354;49.832;10.746;2023-07-13T04:19:50;16.30;99.90
8633;DHT22;4354;49.832;10.746;2023-07-13T04:22:17;16.40;64.90
8633;DHT22;4354;49.832;10.746;2023-07-13T04:24:44;16.40;1.00
8633;DHT22;4354;49.832;10.746;2023-07-13T04:27:11;16.40;11.80
8633;DHT22;4354;49.832;10.746;2023-07-13T04:29:37;16.50;1.00
8633;DHT22;4354;49.832;10.746;2023-07-13T04:32:04;16.40;1.00
8633;DHT22;4354;49.832;10.746;2023-07-13T04:34:31;16.50;99.90
8633;DHT22;4354;49.832;10.746;2023-07-13T04:36:58;16.50;99.90
8633;DHT22;4354;49.832;10.746;2023-07-13T04:39:25;16.50;99.90
8633;DHT22;4354;49.832;10.746;2023-07-13T04:41:52;16.50;1.00
8633;DHT22;4354;49.832;10.746;2023-07-13T04:44:19;16.60;1.00
8633;DHT22;4354;49.832;10.746;2023-07-13T04:46:46;16.60;1.00
8633;DHT22;4354;49.832;10.746;2023-07-13T04:49:13;16.70;1.00
8633;DHT22;4354;49.832;10.746;2023-07-13T04:51:40;16.80;1.00
8633;DHT22;4354;49.832;10.746;2023-07-13T04:54:06;16.90;99.90
8633;DHT22;4354;49.832;10.746;2023-07-13T04:56:34;17.10;1.00
8633;DHT22;4354;49.832;10.746;2023-07-13T04:59:01;17.30;1.00
8633;DHT22;4354;49.832;10.746;2023-07-13T05:01:28;17.50;1.00
8633;DHT22;4354;49.832;10.746;2023-07-13T05:03:56;17.70;99.90
8633;DHT22;4354;49.832;10.746;2023-07-13T05:06:25;17.90;54.30
8633;DHT22;4354;49.832;10.746;2023-07-13T05:08:52;18.20;1.00
8633;DHT22;4354;49.832;10.746;2023-07-13T05:11:19;18.50;1.00
8633;DHT22;4354;49.832;10.746;2023-07-13T05:13:46;18.60;1.00
8633;DHT22;4354;49.832;10.746;2023-07-13T05:16:13;18.80;1.00
8633;DHT22;4354;49.832;10.746;2023-07-13T05:18:40;19.00;1.00
8633;DHT22;4354;49.832;10.746;2023-07-13T05:21:10;19.10;1.00
8633;DHT22;4354;49.832;10.746;2023-07-13T05:23:38;19.30;1.00
8633;DHT22;4354;49.832;10.746;2023-07-13T05:26:05;19.60;1.00
8633;DHT22;4354;49.832;10.746;2023-07-13T05:28:36;19.60;99.90
8633;DHT22;4354;49.832;10.746;2023-07-13T05:31:03;19.70;99.90
8633;DHT22;4354;49.832;10.746;2023-07-13T05:33:30;19.70;99.90
8633;DHT22;4354;49.832;10.746;2023-07-13T05:35:57;19.80;99.90
8633;DHT22;4354;49.832;10.746;2023-07-13T05:38:24;19.80;99.90
8633;DHT22;4354;49.832;10.746;2023-07-13T05:40:53;19.80;99.90
8633;DHT22;4354;49.832;10.746;2023-07-13T05:43:21;19.90;99.90
8633;DHT22;4354;49.832;10.746;2023-07-13T05:45:48;19.90;99.90
8633;DHT22;4354;49.832;10.746;2023-07-13T05:48:16;19.90;99.90
8633;DHT22;4354;49.832;10.746;2023-07-13T05:50:43;20.00;99.90
8633;DHT22;4354;49.832;10.746;2023-07-13T05:53:10;20.00;99.90
8633;DHT22;4354;49.832;10.746;2023-07-13T05:55:44;20.20;99.90
8633;DHT22;4354;49.832;10.746;2023-07-13T05:58:14;20.30;99.90
8633;DHT22;4354;49.832;10.746;2023-07-13T06:00:41;20.40;99.90
8633;DHT22;4354;49.832;10.746;2023-07-13T06:03:08;20.50;99.90
8633;DHT22;4354;49.832;10.746;2023-07-13T06:05:36;20.50;99.90
8633;DHT22;4354;49.832;10.746;2023-07-13T06:08:05;20.50;99.90
8633;DHT22;4354;49.832;10.746;2023-07-13T06:10:33;20.70;99.90
8633;DHT22;4354;49.832;10.746;2023-07-13T06:13:00;20.80;99.90
8633;DHT22;4354;49.832;10.746;2023-07-13T06:15:27;20.80;99.90
8633;DHT22;4354;49.832;10.746;2023-07-13T06:17:54;20.80;99.90
8633;DHT22;4354;49.832;10.746;2023-07-13T06:20:21;20.70;99.90
8633;DHT22;4354;49.832;10.746;2023-07-13T06:22:48;20.70;99.90
8633;DHT22;4354;49.832;10.746;2023-07-13T06:25:14;20.70;99.90
8633;DHT22;4354;49.832;10.746;2023-07-13T06:27:41;20.60;99.90
8633;DHT22;4354;49.832;10.746;2023-07-13T06:30:08;20.70;99.90
8633;DHT22;4354;49.832;10.746;2023-07-13T06:32:35;20.70;99.90
8633;DHT22;4354;49.832;10.746;2023-07-13T06:35:06;21.00;99.90
8633;DHT22;4354;49.832;10.746;2023-07-13T06:37:33;21.20;99.90
8633;DHT22;4354;49.832;10.746;2023-07-13T06:40:00;21.60;99.90
8633;DHT22;4354;49.832;10.746;2023-07-13T06:42:27;21.90;99.90
8633;DHT22;4354;49.832;10.746;2023-07-13T06:44:54;22.40;99.90
8633;DHT22;4354;49.832;10.746;2023-07-13T06:47:20;22.70;99.90
8633;DHT22;4354;49.832;10.746;2023-07-13T06:49:47;23.00;99.90
8633;DHT22;4354;49.832;10.746;2023-07-13T06:52:14;23.50;90.00
8633;DHT22;4354;49.832;10.746;2023-07-13T06:54:41;24.40;68.10
8633;DHT22;4354;49.832;10.746;2023-07-13T06:57:08;25.10;49.10
8633;DHT22;4354;49.832;10.746;2023-07-13T06:59:34;25.90;31.70
8633;DHT22;4354;49.832;10.746;2023-07-13T07:02:01;25.70;21.40
8633;DHT22;4354;49.832;10.746;2023-07-13T07:04:28;25.30;19.10
8633;DHT22;4354;49.832;10.746;2023-07-13T07:06:55;25.50;16.50
8633;DHT22;4354;49.832;10.746;2023-07-13T07:09:25;26.30;12.00
8633;DHT22;4354;49.832;10.746;2023-07-13T07:11:51;27.20;1.60
8633;DHT22;4354;49.832;10.746;2023-07-13T07:14:30;28.10;1.00
8633;DHT22;4354;49.832;10.746;2023-07-13T07:16:57;27.90;1.00
8633;DHT22;4354;49.832;10.746;2023-07-13T07:19:25;27.80;1.00
8633;DHT22;4354;49.832;10.746;2023-07-13T07:21:52;27.50;1.00
8633;DHT22;4354;49.832;10.746;2023-07-13T07:24:19;26.80;1.00
8633;DHT22;4354;49.832;10.746;2023-07-13T07:26:46;26.40;1.00
8633;DHT22;4354;49.832;10.746;2023-07-13T07:29:15;26.30;1.00
8633;DHT22;4354;49.832;10.746;2023-07-13T07:31:45;26.70;1.00
8633;DHT22;4354;49.832;10.746;2023-07-13T07:34:15;27.70;1.00
8633;DHT22;4354;49.832;10.746;2023-07-13T07:36:41;27.70;1.00
8633;DHT22;4354;49.832;10.746;2023-07-13T07:39:11;27.70;1.00
8633;DHT22;4354;49.832;10.746;2023-07-13T07:41:38;28.10;1.00
8633;DHT22;4354;49.832;10.746;2023-07-13T07:44:08;28.50;1.00
8633;DHT22;4354;49.832;10.746;2023-07-13T07:46:36;29.00;1.00
8633;DHT22;4354;49.832;10.746;2023-07-13T07:49:03;29.50;1.00
8633;DHT22;4354;49.832;10.746;2023-07-13T07:51:30;29.80;1.00
8633;DHT22;4354;49.832;10.746;2023-07-13T07:53:57;31.60;1.00
8633;DHT22;4354;49.832;10.746;2023-07-13T07:56:23;32.60;1.00
8633;DHT22;4354;49.832;10.746;2023-07-13T07:58:53;32.20;1.00
8633;DHT22;4354;49.832;10.746;2023-07-13T08:01:23;31.30;1.00
8633;DHT22;4354;49.832;10.746;2023-07-13T08:03:53;30.80;1.00
8633;DHT22;4354;49.832;10.746;2023-07-13T08:06:23;30.30;1.00
8633;DHT22;4354;49.832;10.746;2023-07-13T08:08:53;30.40;1.00
8633;DHT22;4354;49.832;10.746;2023-07-13T08:11:20;31.20;1.00
8633;DHT22;4354;49.832;10.746;2023-07-13T08:13:51;32.00;1.00
8633;DHT22;4354;49.832;10.746;2023-07-13T08:16:22;33.20;1.00
8633;DHT22;4354;49.832;10.746;2023-07-13T08:18:49;34.70;1.00
8633;DHT22;4354;49.832;10.746;2023-07-13T08:21:15;35.80;1.00
8633;DHT22;4354;49.832;10.746;2023-07-13T08:23:42;35.40;1.00
8633;DHT22;4354;49.832;10.746;2023-07-13T08:26:09;35.00;1.00
8633;DHT22;4354;49.832;10.746;2023-07-13T08:28:36;34.70;1.00
8633;DHT22;4354;49.832;10.746;2023-07-13T08:31:04;35.40;1.00
8633;DHT22;4354;49.832;10.746;2023-07-13T08:33:31;34.50;1.00
8633;DHT22;4354;49.832;10.746;2023-07-13T08:35:58;33.00;1.00
8633;DHT22;4354;49.832;10.746;2023-07-13T08:38:25;32.10;1.00
8633;DHT22;4354;49.832;10.746;2023-07-13T08:40:54;32.50;1.00
8633;DHT22;4354;49.832;10.746;2023-07-13T08:43:31;33.50;1.00
8633;DHT22;4354;49.832;10.746;2023-07-13T08:46:09;33.50;1.00
8633;DHT22;4354;49.832;10.746;2023-07-13T08:48:47;34.50;1.00
8633;DHT22;4354;49.832;10.746;2023-07-13T08:53:54;34.70;1.00
8633;DHT22;4354;49.832;10.746;2023-07-13T08:56:24;34.70;1.00
8633;DHT22;4354;49.832;10.746;2023-07-13T08:58:56;33.90;1.00
8633;DHT22;4354;49.832;10.746;2023-07-13T09:01:33;33.60;1.00
8633;DHT22;4354;49.832;10.746;2023-07-13T09:04:19;33.90;1.00
8633;DHT22;4354;49.832;10.746;2023-07-13T09:12:01;34.80;1.00
8633;DHT22;4354;49.832;10.746;2023-07-13T09:14:33;34.30;1.00
8633;DHT22;4354;49.832;10.746;2023-07-13T09:17:19;35.00;1.00
8633;DHT22;4354;49.832;10.746;2023-07-13T09:20:06;35.40;1.00
8633;DHT22;4354;49.832;10.746;2023-07-13T09:22:37;34.80;1.00
8633;DHT22;4354;49.832;10.746;2023-07-13T09:25:06;35.80;1.00
8633;DHT22;4354;49.832;10.746;2023-07-13T09:27:43;36.10;1.00
8633;DHT22;4354;49.832;10.746;2023-07-13T09:32:47;37.80;1.00
8633;DHT22;4354;49.832;10.746;2023-07-13T09:35:19;37.30;1.00
8633;DHT22;4354;49.832;10.746;2023-07-13T09:37:47;36.80;1.00
8633;DHT22;4354;49.832;10.746;2023-07-13T09:40:24;34.60;1.00
8633;DHT22;4354;49.832;10.746;2023-07-13T09:42:53;34.50;1.00
8633;DHT22;4354;49.832;10.746;2023-07-13T09:45:32;34.10;1.00
8633;DHT22;4354;49.832;10.746;2023-07-13T09:48:04;32.60;1.00
8633;DHT22;4354;49.832;10.746;2023-07-13T09:50:31;33.30;1.00
8633;DHT22;4354;49.832;10.746;2023-07-13T09:53:01;34.90;1.00
8633;DHT22;4354;49.832;10.746;2023-07-13T09:55:34;34.70;1.00
8633;DHT22;4354;49.832;10.746;2023-07-13T09:58:17;34.80;1.00
8633;DHT22;4354;49.832;10.746;2023-07-13T10:01:00;34.50;1.00
8633;DHT22;4354;49.832;10.746;2023-07-13T10:03:36;34.00;1.00
8633;DHT22;4354;49.832;10.746;2023-07-13T10:06:16;34.90;1.00
8633;DHT22;4354;49.832;10.746;2023-07-13T10:08:45;36.00;1.00
8633;DHT22;4354;49.832;10.746;2023-07-13T10:14:15;35.10;1.00
8633;DHT22;4354;49.832;10.746;2023-07-13T10:16:44;34.60;1.00
8633;DHT22;4354;49.832;10.746;2023-07-13T10:19:22;35.20;1.00
8633;DHT22;4354;49.832;10.746;2023-07-13T10:21:54;36.40;1.00
8633;DHT22;4354;49.832;10.746;2023-07-13T10:27:01;35.60;1.00
8633;DHT22;4354;49.832;10.746;2023-07-13T10:29:36;35.10;1.00
8633;DHT22;4354;49.832;10.746;2023-07-13T10:32:09;35.60;1.00
8633;DHT22;4354;49.832;10.746;2023-07-13T10:34:39;35.10;1.00
8633;DHT22;4354;49.832;10.746;2023-07-13T10:37:09;35.00;1.00
8633;DHT22;4354;49.832;10.746;2023-07-13T10:39:41;35.80;1.00
8633;DHT22;4354;49.832;10.746;2023-07-13T10:42:13;35.50;1.00
8633;DHT22;4354;49.832;10.746;2023-07-13T10:44:41;33.90;1.00
8633;DHT22;4354;49.832;10.746;2023-07-13T10:47:13;32.10;1.00
8633;DHT22;4354;49.832;10.746;2023-07-13T10:49:42;32.70;1.00
8633;DHT22;4354;49.832;10.746;2023-07-13T10:55:33;31.00;1.00
8633;DHT22;4354;49.832;10.746;2023-07-13T10:58:13;29.50;1.00
8633;DHT22;4354;49.832;10.746;2023-07-13T11:01:01;28.30;1.00
8633;DHT22;4354;49.832;10.746;2023-07-13T11:03:32;27.60;1.00
8633;DHT22;4354;49.832;10.746;2023-07-13T11:06:11;28.10;1.00
8633;DHT22;4354;49.832;10.746;2023-07-13T11:19:08;26.50;1.00
8633;DHT22;4354;49.832;10.746;2023-07-13T11:22:02;26.40;1.00
8633;DHT22;4354;49.832;10.746;2023-07-13T11:27:41;26.20;1.00
8633;DHT22;4354;49.832;10.746;2023-07-13T11:35:36;27.90;1.00
8633;DHT22;4354;49.832;10.746;2023-07-13T11:38:13;27.50;1.00
8633;DHT22;4354;49.832;10.746;2023-07-13T11:40:43;27.90;1.00
8633;DHT22;4354;49.832;10.746;2023-07-13T11:43:13;27.70;1.00
8633;DHT22;4354;49.832;10.746;2023-07-13T11:45:41;28.30;1.00
8633;DHT22;4354;49.832;10.746;2023-07-13T11:48:26;28.50;1.00
8633;DHT22;4354;49.832;10.746;2023-07-13T11:51:01;29.20;1.00
8633;DHT22;4354;49.832;10.746;2023-07-13T11:53:38;29.60;1.00
8633;DHT22;4354;49.832;10.746;2023-07-13T11:56:06;30.00;1.00
8633;DHT22;4354;49.832;10.746;2023-07-13T11:58:33;30.70;1.00
8633;DHT22;4354;49.832;10.746;2023-07-13T12:01:02;30.60;1.00
8633;DHT22;4354;49.832;10.746;2023-07-13T12:03:32;31.10;1.00
8633;DHT22;4354;49.832;10.746;2023-07-13T12:06:03;30.90;1.00
8633;DHT22;4354;49.832;10.746;2023-07-13T12:08:38;30.30;1.00
8633;DHT22;4354;49.832;10.746;2023-07-13T12:11:18;28.70;1.00
8633;DHT22;4354;49.832;10.746;2023-07-13T12:13:46;27.80;1.00
8633;DHT22;4354;49.832;10.746;2023-07-13T12:16:20;27.20;1.00
8633;DHT22;4354;49.832;10.746;2023-07-13T12:18:49;27.10;1.00
8633;DHT22;4354;49.832;10.746;2023-07-13T12:21:19;26.70;1.00
8633;DHT22;4354;49.832;10.746;2023-07-13T12:23:49;26.60;1.00
8633;DHT22;4354;49.832;10.746;2023-07-13T12:26:17;26.80;1.00
8633;DHT22;4354;49.832;10.746;2023-07-13T12:28:51;26.60;1.00
8633;DHT22;4354;49.832;10.746;2023-07-13T12:34:11;27.00;1.00
8633;DHT22;4354;49.832;10.746;2023-07-13T12:36:54;27.50;1.00
8633;DHT22;4354;49.832;10.746;2023-07-13T12:39:25;27.80;1.00
8633;DHT22;4354;49.832;10.746;2023-07-13T12:41:53;28.00;1.00
8633;DHT22;4354;49.832;10.746;2023-07-13T12:44:27;27.70;1.00
8633;DHT22;4354;49.832;10.746;2023-07-13T12:47:09;27.80;1.00
8633;DHT22;4354;49.832;10.746;2023-07-13T12:50:03;27.50;1.00
8633;DHT22;4354;49.832;10.746;2023-07-13T12:52:34;27.30;1.00
8633;DHT22;4354;49.832;10.746;2023-07-13T12:55:27;27.10;1.00
8633;DHT22;4354;49.832;10.746;2023-07-13T12:57:59;27.10;1.00
8633;DHT22;4354;49.832;10.746;2023-07-13T13:00:31;27.10;1.00
8633;DHT22;4354;49.832;10.746;2023-07-13T13:06:03;27.60;1.00
8633;DHT22;4354;49.832;10.746;2023-07-13T13:08:35;27.90;1.00
8633;DHT22;4354;49.832;10.746;2023-07-13T13:11:02;28.00;1.00
8633;DHT22;4354;49.832;10.746;2023-07-13T13:13:29;28.00;1.00
8633;DHT22;4354;49.832;10.746;2023-07-13T13:15:56;28.10;1.00
8633;DHT22;4354;49.832;10.746;2023-07-13T13:18:27;28.00;1.00
8633;DHT22;4354;49.832;10.746;2023-07-13T13:20:56;27.80;1.00
8633;DHT22;4354;49.832;10.746;2023-07-13T13:23:22;27.80;1.00
8633;DHT22;4354;49.832;10.746;2023-07-13T13:25:50;27.90;1.00
8633;DHT22;4354;49.832;10.746;2023-07-13T13:28:19;28.10;1.00
8633;DHT22;4354;49.832;10.746;2023-07-13T13:30:48;28.40;1.00
8633;DHT22;4354;49.832;10.746;2023-07-13T13:33:18;28.30;1.00
8633;DHT22;4354;49.832;10.746;2023-07-13T13:35:45;28.60;1.00
8633;DHT22;4354;49.832;10.746;2023-07-13T13:38:19;28.30;1.00
8633;DHT22;4354;49.832;10.746;2023-07-13T13:40:46;27.80;1.00
8633;DHT22;4354;49.832;10.746;2023-07-13T13:43:22;27.80;1.00
8633;DHT22;4354;49.832;10.746;2023-07-13T13:45:56;27.60;1.00
8633;DHT22;4354;49.832;10.746;2023-07-13T13:48:32;27.80;1.00
8633;DHT22;4354;49.832;10.746;2023-07-13T13:51:00;27.80;1.00
8633;DHT22;4354;49.832;10.746;2023-07-13T13:53:28;27.50;1.00
8633;DHT22;4354;49.832;10.746;2023-07-13T13:55:54;27.60;1.00
8633;DHT22;4354;49.832;10.746;2023-07-13T13:58:21;27.40;1.00
8633;DHT22;4354;49.832;10.746;2023-07-13T14:00:48;27.30;1.00
8633;DHT22;4354;49.832;10.746;2023-07-13T14:03:21;27.30;1.00
8633;DHT22;4354;49.832;10.746;2023-07-13T14:05:49;27.00;1.00
8633;DHT22;4354;49.832;10.746;2023-07-13T14:08:20;26.70;1.00
8633;DHT22;4354;49.832;10.746;2023-07-13T14:10:54;26.60;1.00
8633;DHT22;4354;49.832;10.746;2023-07-13T14:13:33;26.90;1.00
8633;DHT22;4354;49.832;10.746;2023-07-13T14:16:02;27.40;1.00
8633;DHT22;4354;49.832;10.746;2023-07-13T14:18:29;27.40;1.00
8633;DHT22;4354;49.832;10.746;2023-07-13T14:20:56;27.30;1.00
8633;DHT22;4354;49.832;10.746;2023-07-13T14:23:23;27.10;1.00
8633;DHT22;4354;49.832;10.746;2023-07-13T14:25:50;27.30;1.00
8633;DHT22;4354;49.832;10.746;2023-07-13T14:28:23;27.10;1.00
8633;DHT22;4354;49.832;10.746;2023-07-13T14:30:52;27.00;1.00
8633;DHT22;4354;49.832;10.746;2023-07-13T14:33:20;27.00;1.00
8633;DHT22;4354;49.832;10.746;2023-07-13T14:35:49;27.00;1.00
8633;DHT22;4354;49.832;10.746;2023-07-13T14:38:18;27.00;1.00
8633;DHT22;4354;49.832;10.746;2023-07-13T14:40:46;27.20;1.00
8633;DHT22;4354;49.832;10.746;2023-07-13T14:43:15;27.10;1.00
8633;DHT22;4354;49.832;10.746;2023-07-13T14:45:48;27.10;1.00
8633;DHT22;4354;49.832;10.746;2023-07-13T14:48:25;26.80;1.00
8633;DHT22;4354;49.832;10.746;2023-07-13T14:50:57;26.80;1.00
8633;DHT22;4354;49.832;10.746;2023-07-13T14:53:26;26.50;1.00
8633;DHT22;4354;49.832;10.746;2023-07-13T14:55:56;26.50;1.00
8633;DHT22;4354;49.832;10.746;2023-07-13T14:58:23;26.80;1.00
8633;DHT22;4354;49.832;10.746;2023-07-13T15:00:50;27.20;1.00
8633;DHT22;4354;49.832;10.746;2023-07-13T15:03:22;27.40;1.00
8633;DHT22;4354;49.832;10.746;2023-07-13T15:05:50;27.30;1.00
8633;DHT22;4354;49.832;10.746;2023-07-13T15:08:17;27.30;1.00
8633;DHT22;4354;49.832;10.746;2023-07-13T15:10:44;27.50;1.00
8633;DHT22;4354;49.832;10.746;2023-07-13T15:13:19;27.40;1.00
8633;DHT22;4354;49.832;10.746;2023-07-13T15:15:48;27.20;1.00
8633;DHT22;4354;49.832;10.746;2023-07-13T15:18:18;27.10;1.00
8633;DHT22;4354;49.832;10.746;2023-07-13T15:20:47;27.00;1.00
8633;DHT22;4354;49.832;10.746;2023-07-13T15:23:15;27.10;1.00
8633;DHT22;4354;49.832;10.746;2023-07-13T15:25:43;27.10;1.00
8633;DHT22;4354;49.832;10.746;2023-07-13T15:28:10;27.20;1.00
8633;DHT22;4354;49.832;10.746;2023-07-13T15:30:43;27.10;1.00
8633;DHT22;4354;49.832;10.746;2023-07-13T15:33:14;27.10;1.00
8633;DHT22;4354;49.832;10.746;2023-07-13T15:35:44;27.10;1.00
8633;DHT22;4354;49.832;10.746;2023-07-13T15:38:18;27.00;1.00
8633;DHT22;4354;49.832;10.746;2023-07-13T15:40:46;26.90;1.00
8633;DHT22;4354;49.832;10.746;2023-07-13T15:43:15;26.70;1.00
8633;DHT22;4354;49.832;10.746;2023-07-13T15:45:43;26.40;1.00
8633;DHT22;4354;49.832;10.746;2023-07-13T15:48:21;26.20;1.00
8633;DHT22;4354;49.832;10.746;2023-07-13T15:50:54;26.20;1.00
8633;DHT22;4354;49.832;10.746;2023-07-13T15:53:24;26.30;1.00
8633;DHT22;4354;49.832;10.746;2023-07-13T15:55:52;26.40;1.00
8633;DHT22;4354;49.832;10.746;2023-07-13T15:58:19;26.30;1.00
8633;DHT22;4354;49.832;10.746;2023-07-13T16:00:47;26.00;1.00
8633;DHT22;4354;49.832;10.746;2023-07-13T16:03:19;25.80;1.00
8633;DHT22;4354;49.832;10.746;2023-07-13T16:05:46;25.60;1.00
8633;DHT22;4354;49.832;10.746;2023-07-13T16:08:27;25.50;1.00
8633;DHT22;4354;49.832;10.746;2023-07-13T16:10:54;25.60;1.00
8633;DHT22;4354;49.832;10.746;2023-07-13T16:13:22;25.60;1.00
8633;DHT22;4354;49.832;10.746;2023-07-13T16:15:53;25.90;1.00
8633;DHT22;4354;49.832;10.746;2023-07-13T16:18:22;26.00;1.00
8633;DHT22;4354;49.832;10.746;2023-07-13T16:20:49;26.00;1.00
8633;DHT22;4354;49.832;10.746;2023-07-13T16:23:17;25.90;1.00
8633;DHT22;4354;49.832;10.746;2023-07-13T16:25:44;25.90;1.00
8633;DHT22;4354;49.832;10.746;2023-07-13T16:28:12;26.20;1.00
8633;DHT22;4354;49.832;10.746;2023-07-13T16:30:39;26.30;1.00
8633;DHT22;4354;49.832;10.746;2023-07-13T16:33:06;26.50;1.00
8633;DHT22;4354;49.832;10.746;2023-07-13T16:35:38;26.50;1.00
8633;DHT22;4354;49.832;10.746;2023-07-13T16:38:21;26.30;1.00
8633;DHT22;4354;49.832;10.746;2023-07-13T16:40:49;25.90;1.00
8633;DHT22;4354;49.832;10.746;2023-07-13T16:43:18;25.80;1.00
8633;DHT22;4354;49.832;10.746;2023-07-13T16:45:48;25.60;1.00
8633;DHT22;4354;49.832;10.746;2023-07-13T16:48:21;25.50;1.00
8633;DHT22;4354;49.832;10.746;2023-07-13T16:50:53;25.40;1.00
8633;DHT22;4354;49.832;10.746;2023-07-13T16:55:50;25.40;1.00
8633;DHT22;4354;49.832;10.746;2023-07-13T16:58:17;25.40;1.00
8633;DHT22;4354;49.832;10.746;2023-07-13T17:00:47;25.50;1.00